createdAt,value
2023-03-05T00:01:51.720Z,1.90
2023-03-05T00:04:18.776Z,1.90
2023-03-05T00:06:45.812Z,1.90
2023-03-05T00:09:12.987Z,1.90
2023-03-05T00:11:40.013Z,1.90
2023-03-05T00:14:07.216Z,1.90
2023-03-05T00:17:03.901Z,2.00
2023-03-05T00:19:30.991Z,2.00
2023-03-05T00:21:57.961Z,1.90
2023-03-05T00:24:24.983Z,1.90
2023-03-05T00:26:52.057Z,1.80
2023-03-05T00:29:22.032Z,1.70
2023-03-05T00:31:49.197Z,1.60
2023-03-05T00:34:19.052Z,1.60
2023-03-05T00:36:49.397Z,1.60
2023-03-05T00:39:18.582Z,1.50
2023-03-05T00:41:45.845Z,1.50
2023-03-05T00:44:13.193Z,1.50
2023-03-05T00:46:40.623Z,1.50
2023-03-05T00:49:08.351Z,1.60
2023-03-05T00:51:35.490Z,1.60
2023-03-05T00:54:03.315Z,1.70
2023-03-05T00:56:30.385Z,1.80
2023-03-05T00:58:57.535Z,1.80
2023-03-05T01:01:24.917Z,1.90
2023-03-05T01:03:52.043Z,1.90
2023-03-05T01:06:19.499Z,1.80
2023-03-05T01:08:46.567Z,1.70
2023-03-05T01:11:14.329Z,1.70
2023-03-05T01:14:04.446Z,1.70
2023-03-05T01:16:31.541Z,1.80
2023-03-05T01:18:58.644Z,1.80
2023-03-05T01:21:25.847Z,1.80
2023-03-05T01:23:53.044Z,1.70
2023-03-05T01:26:20.108Z,1.70
2023-03-05T01:28:47.187Z,1.60
2023-03-05T01:31:14.332Z,1.60
2023-03-05T01:33:41.480Z,1.50
2023-03-05T01:36:15.975Z,1.60
2023-03-05T01:38:44.640Z,1.60
2023-03-05T01:41:13.127Z,1.70
2023-03-05T01:43:40.670Z,1.70
2023-03-05T01:46:13.517Z,1.70
2023-03-05T01:48:44.287Z,1.60
2023-03-05T01:51:11.382Z,1.60
2023-03-05T01:53:38.585Z,1.50
2023-03-05T01:56:07.285Z,1.50
2023-03-05T01:58:34.334Z,1.50
2023-03-05T02:01:02.502Z,1.50
2023-03-05T02:03:29.604Z,1.60
2023-03-05T02:05:56.644Z,1.50
2023-03-05T02:08:24.465Z,1.60
2023-03-05T02:10:55.395Z,1.60
2023-03-05T02:13:26.034Z,1.60
2023-03-05T02:15:53.734Z,1.60
2023-03-05T02:18:23.963Z,1.50
2023-03-05T02:20:56.623Z,1.60
2023-03-05T02:23:30.274Z,1.60
2023-03-05T02:25:57.325Z,1.60
2023-03-05T02:28:27.405Z,1.60
2023-03-05T02:30:54.453Z,1.50
2023-03-05T02:33:21.649Z,1.60
2023-03-05T02:35:49.540Z,1.60
2023-03-05T02:38:19.196Z,1.60
2023-03-05T02:40:46.240Z,1.60
2023-03-05T02:43:14.931Z,1.70
2023-03-05T02:45:41.989Z,1.60
2023-03-05T02:49:14.286Z,1.70
2023-03-05T02:51:41.643Z,1.70
2023-03-05T02:54:09.066Z,1.70
2023-03-05T02:56:38.345Z,1.70
2023-03-05T02:59:05.626Z,1.50
2023-03-05T03:01:32.642Z,1.40
2023-03-05T03:04:00.093Z,1.40
2023-03-05T03:06:27.067Z,1.30
2023-03-05T03:08:54.046Z,1.30
2023-03-05T03:11:21.549Z,1.40
2023-03-05T03:13:48.654Z,1.40
2023-03-05T03:16:17.166Z,1.50
2023-03-05T03:18:47.496Z,1.60
2023-03-05T03:21:24.555Z,1.60
2023-03-05T03:23:51.924Z,1.60
2023-03-05T03:26:19.241Z,1.70
2023-03-05T03:28:46.283Z,1.70
2023-03-05T03:31:13.319Z,1.70
2023-03-05T03:33:40.468Z,1.70
2023-03-05T03:36:07.924Z,1.70
2023-03-05T03:38:35.068Z,1.70
2023-03-05T03:41:02.034Z,1.70
2023-03-05T03:43:29.028Z,1.60
2023-03-05T03:45:56.017Z,1.60
2023-03-05T03:48:23.087Z,1.50
2023-03-05T03:50:50.064Z,1.50
2023-03-05T03:53:17.582Z,1.50
2023-03-05T03:55:46.600Z,1.50
2023-03-05T03:58:13.676Z,1.50
2023-03-05T04:00:41.720Z,1.50
2023-03-05T04:03:09.383Z,1.60
2023-03-05T04:05:36.409Z,1.60
2023-03-05T04:08:03.586Z,1.60
2023-03-05T04:10:30.594Z,1.70
2023-03-05T04:12:57.561Z,1.80
2023-03-05T04:15:25.329Z,1.80
2023-03-05T04:17:52.396Z,1.80
2023-03-05T04:20:19.517Z,1.80
2023-03-05T04:22:46.480Z,1.80
2023-03-05T04:25:13.422Z,1.80
2023-03-05T04:27:40.531Z,1.90
2023-03-05T04:30:09.112Z,1.80
2023-03-05T04:32:36.338Z,1.80
2023-03-05T04:35:03.499Z,1.70
2023-03-05T04:37:30.466Z,1.70
2023-03-05T04:39:57.480Z,1.70
2023-03-05T04:42:24.649Z,1.70
2023-03-05T04:44:51.701Z,1.80
2023-03-05T04:47:19.688Z,1.80
2023-03-05T04:49:46.661Z,1.80
2023-03-05T04:52:14.526Z,1.80
2023-03-05T04:54:41.938Z,1.80
2023-03-05T04:57:08.872Z,1.80
2023-03-05T04:59:37.765Z,1.70
2023-03-05T05:02:05.594Z,1.70
2023-03-05T05:04:32.677Z,1.60
2023-03-05T05:06:59.908Z,1.60
2023-03-05T05:09:26.921Z,1.50
2023-03-05T05:11:53.986Z,1.60
2023-03-05T05:14:21.142Z,1.50
2023-03-05T05:16:48.212Z,1.50
2023-03-05T05:19:15.283Z,1.50
2023-03-05T05:21:43.168Z,1.40
2023-03-05T05:24:10.278Z,1.40
2023-03-05T05:26:37.265Z,1.40
2023-03-05T05:29:04.451Z,1.40
2023-03-05T05:31:31.514Z,1.40
2023-03-05T05:33:58.628Z,1.30
2023-03-05T05:36:25.571Z,1.30
2023-03-05T05:38:52.540Z,1.30
2023-03-05T05:41:20.127Z,1.30
2023-03-05T05:43:47.306Z,1.40
2023-03-05T05:46:17.500Z,1.40
2023-03-05T05:48:45.385Z,1.40
2023-03-05T05:51:15.121Z,1.30
2023-03-05T05:53:42.969Z,1.30
2023-03-05T05:56:11.342Z,1.20
2023-03-05T05:58:39.857Z,1.10
2023-03-05T06:01:19.153Z,1.10
2023-03-05T06:03:46.674Z,1.10
2023-03-05T06:06:16.247Z,1.10
2023-03-05T06:08:43.278Z,1.10
2023-03-05T06:11:10.912Z,1.10
2023-03-05T06:13:38.278Z,1.10
2023-03-05T06:16:08.471Z,1.10
2023-03-05T06:18:35.815Z,1.10
2023-03-05T06:21:08.033Z,1.20
2023-03-05T06:23:35.334Z,1.40
2023-03-05T06:26:04.538Z,1.40
2023-03-05T06:28:32.035Z,1.40
2023-03-05T06:31:02.812Z,1.30
2023-03-05T06:33:30.151Z,1.40
2023-03-05T06:35:57.160Z,1.50
2023-03-05T06:38:24.544Z,1.50
2023-03-05T06:40:51.880Z,1.40
2023-03-05T06:43:18.847Z,1.40
2023-03-05T06:45:46.027Z,1.30
2023-03-05T06:48:13.081Z,1.40
2023-03-05T06:50:40.053Z,1.40
2023-03-05T06:53:07.042Z,1.40
2023-03-05T06:56:05.087Z,1.30
2023-03-05T06:58:32.031Z,1.40
2023-03-05T07:00:59.014Z,1.40
2023-03-05T07:03:26.076Z,1.40
2023-03-05T07:05:53.017Z,1.40
2023-03-05T07:08:20.004Z,1.40
2023-03-05T07:10:46.938Z,1.40
2023-03-05T07:13:13.919Z,1.50
2023-03-05T07:15:41.308Z,1.60
2023-03-05T07:18:08.449Z,1.70
2023-03-05T07:20:38.294Z,1.80
2023-03-05T07:23:05.488Z,1.90
2023-03-05T07:25:32.905Z,1.90
2023-03-05T07:28:00.008Z,1.90
2023-03-05T07:30:26.980Z,2.00
2023-03-05T07:32:53.968Z,2.10
2023-03-05T07:35:21.041Z,2.20
2023-03-05T07:37:48.130Z,2.20
2023-03-05T07:40:15.112Z,2.30
2023-03-05T07:42:42.139Z,2.40
2023-03-05T07:45:15.936Z,2.40
2023-03-05T07:47:42.932Z,2.40
2023-03-05T07:50:10.450Z,2.50
2023-03-05T07:52:37.477Z,2.50
2023-03-05T07:55:04.772Z,2.50
2023-03-05T07:57:31.856Z,2.50
2023-03-05T07:59:58.813Z,2.40
2023-03-05T08:02:25.805Z,2.30
2023-03-05T08:04:52.808Z,2.30
2023-03-05T08:07:19.791Z,2.30
2023-03-05T08:09:46.757Z,2.30
2023-03-05T08:12:13.714Z,2.30
2023-03-05T08:14:40.716Z,2.40
2023-03-05T08:17:08.697Z,2.40
2023-03-05T08:19:35.707Z,2.40
2023-03-05T08:22:02.674Z,2.40
2023-03-05T08:24:29.951Z,2.40
2023-03-05T08:26:58.176Z,2.40
2023-03-05T08:29:25.992Z,2.40
2023-03-05T08:31:53.996Z,2.40
2023-03-05T08:34:21.627Z,2.40
2023-03-05T08:36:49.085Z,2.40
2023-03-05T08:39:17.255Z,2.40
2023-03-05T08:41:44.827Z,2.50
2023-03-05T08:44:12.691Z,2.60
2023-03-05T08:46:40.656Z,2.60
2023-03-05T08:49:08.084Z,2.50
2023-03-05T08:51:36.074Z,2.50
2023-03-05T08:54:06.983Z,2.60
2023-03-05T08:56:35.307Z,2.60
2023-03-05T08:59:03.770Z,2.70
2023-03-05T09:01:32.037Z,2.70
2023-03-05T09:04:00.037Z,2.70
2023-03-05T09:06:27.854Z,2.70
2023-03-05T09:08:55.219Z,2.80
2023-03-05T09:11:22.974Z,2.70
2023-03-05T09:13:49.922Z,2.70
2023-03-05T09:16:18.827Z,2.80
2023-03-05T09:18:45.994Z,2.90
2023-03-05T09:21:17.540Z,3.00
2023-03-05T09:23:47.336Z,2.90
2023-03-05T09:26:19.144Z,3.00
2023-03-05T09:28:46.581Z,3.00
2023-03-05T09:31:14.209Z,2.90
2023-03-05T09:33:41.396Z,2.90
2023-03-05T09:36:20.650Z,2.90
2023-03-05T09:38:47.742Z,3.00
2023-03-05T09:41:23.813Z,2.90
2023-03-05T09:44:06.195Z,2.80
2023-03-05T09:46:54.766Z,2.80
2023-03-05T09:49:49.189Z,2.90
2023-03-05T09:52:29.632Z,2.90
2023-03-05T09:54:57.886Z,2.90
2023-03-05T09:57:36.564Z,2.90
2023-03-05T10:00:10.575Z,2.90
2023-03-05T10:02:51.281Z,3.00
2023-03-05T10:05:45.599Z,3.00
2023-03-05T10:08:13.932Z,3.00
2023-03-05T10:10:44.389Z,3.00
2023-03-05T10:13:26.401Z,3.00
2023-03-05T10:16:29.904Z,3.00
2023-03-05T10:19:09.689Z,2.90
2023-03-05T10:21:42.739Z,2.80
2023-03-05T10:24:38.504Z,2.90
2023-03-05T10:27:19.294Z,2.80
2023-03-05T10:30:17.482Z,2.80
2023-03-05T10:33:19.788Z,2.80
2023-03-05T10:35:58.936Z,2.70
2023-03-05T10:38:53.411Z,2.60
2023-03-05T10:42:02.601Z,2.70
2023-03-05T10:44:39.764Z,2.80
2023-03-05T10:47:38.831Z,2.70
2023-03-05T10:50:18.129Z,2.80
2023-03-05T10:52:48.719Z,2.90
2023-03-05T10:55:19.189Z,2.90
2023-03-05T10:57:46.177Z,2.90
2023-03-05T11:00:25.013Z,2.80
2023-03-05T11:03:01.921Z,2.70
2023-03-05T11:05:44.273Z,2.80
2023-03-05T11:08:37.152Z,2.80
2023-03-05T11:11:31.404Z,2.90
2023-03-05T11:14:03.968Z,2.90
2023-03-05T11:16:45.455Z,2.80
2023-03-05T11:19:17.595Z,2.70
2023-03-05T11:21:45.895Z,2.70
2023-03-05T11:24:19.124Z,2.80
2023-03-05T11:26:52.078Z,2.80
2023-03-05T11:29:47.217Z,2.90
2023-03-05T11:32:20.522Z,2.90
2023-03-05T11:34:48.175Z,2.90
2023-03-05T11:37:27.585Z,2.90
2023-03-05T11:40:30.179Z,3.00
2023-03-05T11:43:51.381Z,3.10
2023-03-05T11:46:19.064Z,3.20
2023-03-05T11:48:46.895Z,3.30
2023-03-05T11:51:26.325Z,3.30
2023-03-05T11:53:59.442Z,3.20
2023-03-05T11:56:34.723Z,3.20
2023-03-05T11:59:16.717Z,3.10
2023-03-05T12:01:52.584Z,3.10
2023-03-05T12:04:21.025Z,3.10
2023-03-05T12:06:52.010Z,3.10
2023-03-05T12:09:43.578Z,3.10
2023-03-05T12:12:36.079Z,3.20
2023-03-05T12:15:12.199Z,3.30
2023-03-05T12:17:42.274Z,3.30
2023-03-05T12:20:39.693Z,3.30
2023-03-05T12:23:11.071Z,3.40
2023-03-05T12:25:57.657Z,3.40
2023-03-05T12:28:37.133Z,3.50
2023-03-05T12:31:23.901Z,3.50
2023-03-05T12:33:50.885Z,3.50
2023-03-05T12:36:17.895Z,3.60
2023-03-05T12:38:47.716Z,3.70
2023-03-05T12:41:24.534Z,3.80
2023-03-05T12:44:07.714Z,3.90
2023-03-05T12:46:38.392Z,4.00
2023-03-05T12:49:21.288Z,4.10
2023-03-05T12:51:50.663Z,4.10
2023-03-05T12:58:40.380Z,4.00
2023-03-05T13:01:16.359Z,4.00
2023-03-05T13:04:04.313Z,3.90
2023-03-05T13:06:34.279Z,3.90
2023-03-05T13:09:16.770Z,4.00
2023-03-05T13:11:51.042Z,4.10
2023-03-05T13:18:25.105Z,4.20
2023-03-05T13:21:07.656Z,4.10
2023-03-05T13:23:35.737Z,4.10
2023-03-05T13:26:15.551Z,4.10
2023-03-05T13:28:45.057Z,4.00
2023-03-05T13:31:18.656Z,4.00
2023-03-05T13:33:59.511Z,4.00
2023-03-05T13:36:27.959Z,4.10
2023-03-05T13:38:55.434Z,4.20
2023-03-05T13:41:25.362Z,4.10
2023-03-05T13:44:00.975Z,4.00
2023-03-05T13:46:29.819Z,4.00
2023-03-05T13:48:57.874Z,4.00
2023-03-05T13:51:44.538Z,4.00
2023-03-05T13:54:16.874Z,4.00
2023-03-05T13:57:07.582Z,4.10
2023-03-05T13:59:36.629Z,4.10
2023-03-05T14:02:20.808Z,4.20
2023-03-05T14:04:48.388Z,4.30
2023-03-05T14:07:41.646Z,4.20
2023-03-05T14:10:42.283Z,4.10
2023-03-05T14:13:17.952Z,3.90
2023-03-05T14:16:10.900Z,3.70
2023-03-05T14:18:38.781Z,3.70
2023-03-05T14:21:11.176Z,3.70
2023-03-05T14:23:57.978Z,3.70
2023-03-05T14:26:35.136Z,3.70
2023-03-05T14:29:15.265Z,3.80
2023-03-05T14:31:54.182Z,3.80
2023-03-05T14:34:23.083Z,3.70
2023-03-05T14:36:53.163Z,3.80
2023-03-05T14:40:23.984Z,3.80
2023-03-05T14:42:56.127Z,3.70
2023-03-05T14:45:26.023Z,3.70
2023-03-05T14:47:55.158Z,3.70
2023-03-05T14:50:36.299Z,3.70
2023-03-05T14:53:08.447Z,3.80
2023-03-05T14:55:38.426Z,3.90
2023-03-05T14:58:12.791Z,4.00
2023-03-05T15:00:40.076Z,4.00
2023-03-05T15:03:07.231Z,3.80
2023-03-05T15:05:35.218Z,3.70
2023-03-05T15:08:02.265Z,3.50
2023-03-05T15:10:29.322Z,3.50
2023-03-05T15:12:58.312Z,3.50
2023-03-05T15:15:25.414Z,3.50
2023-03-05T15:17:54.689Z,3.50
2023-03-05T15:20:27.302Z,3.40
2023-03-05T15:22:54.483Z,3.40
2023-03-05T15:25:46.585Z,3.30
2023-03-05T15:28:13.677Z,3.30
2023-03-05T15:30:46.368Z,3.30
2023-03-05T15:33:16.265Z,3.20
2023-03-05T15:35:43.844Z,3.20
2023-03-05T15:38:10.829Z,3.10
2023-03-05T15:40:37.915Z,3.20
2023-03-05T15:43:04.845Z,3.10
2023-03-05T15:45:31.898Z,3.10
2023-03-05T15:47:58.972Z,3.20
2023-03-05T15:50:26.071Z,3.20
2023-03-05T15:52:53.211Z,3.20
2023-03-05T15:55:20.661Z,3.20
2023-03-05T15:57:49.831Z,3.10
2023-03-05T16:00:22.050Z,3.10
2023-03-05T16:02:49.765Z,3.10
2023-03-05T16:05:16.951Z,3.00
2023-03-05T16:07:48.608Z,3.00
2023-03-05T16:10:20.508Z,2.90
2023-03-05T16:12:50.477Z,2.90
2023-03-05T16:15:19.927Z,2.90
2023-03-05T16:17:51.309Z,2.90
2023-03-05T16:20:18.586Z,2.90
2023-03-05T16:22:46.452Z,2.90
2023-03-05T16:25:13.567Z,2.90
2023-03-05T16:27:40.759Z,2.90
2023-03-05T16:30:09.285Z,2.90
2023-03-05T16:32:37.881Z,2.90
2023-03-05T16:35:05.423Z,2.90
2023-03-05T16:38:30.669Z,2.90
2023-03-05T16:41:07.914Z,2.90
2023-03-05T16:43:35.704Z,2.90
2023-03-05T16:46:02.751Z,2.90
2023-03-05T16:48:30.245Z,2.90
2023-03-05T16:52:19.426Z,2.90
2023-03-05T16:54:47.094Z,2.90
2023-03-05T16:57:14.737Z,2.80
2023-03-05T17:00:36.454Z,2.80
2023-03-05T17:03:04.110Z,2.70
2023-03-05T17:05:31.092Z,2.70
2023-03-05T17:07:58.100Z,2.70
2023-03-05T17:10:25.174Z,2.60
2023-03-05T17:12:52.864Z,2.60
2023-03-05T17:15:19.882Z,2.70
2023-03-05T17:17:46.864Z,2.60
2023-03-05T17:20:14.230Z,2.70
2023-03-05T17:22:41.334Z,2.70
2023-03-05T17:25:08.933Z,2.60
2023-03-05T17:27:37.223Z,2.60
2023-03-05T17:30:05.367Z,2.60
2023-03-05T17:32:32.445Z,2.70
2023-03-05T17:34:59.464Z,2.70
2023-03-05T17:37:26.734Z,2.80
2023-03-05T17:39:54.056Z,2.70
2023-03-05T17:42:21.262Z,2.70
2023-03-05T17:47:16.870Z,2.60
2023-03-05T17:49:43.858Z,2.70
2023-03-05T17:52:10.875Z,2.70
2023-03-05T17:54:37.835Z,2.70
2023-03-05T17:57:04.901Z,2.80
2023-03-05T17:59:34.915Z,2.70
2023-03-05T18:02:02.385Z,2.60
2023-03-05T18:04:29.495Z,2.60
2023-03-05T18:06:57.530Z,2.50
2023-03-05T18:09:25.005Z,2.50
2023-03-05T18:11:51.987Z,2.50
2023-03-05T18:14:18.926Z,2.50
2023-03-05T18:17:39.498Z,2.40
2023-03-05T18:20:07.446Z,2.40
2023-03-05T18:22:34.447Z,2.30
2023-03-05T18:25:52.566Z,2.30
2023-03-05T18:28:19.768Z,2.30
2023-03-05T18:30:48.942Z,2.40
2023-03-05T18:33:19.909Z,2.40
2023-03-05T18:35:52.172Z,2.20
2023-03-05T18:38:24.190Z,2.10
2023-03-05T18:40:52.831Z,2.20
2023-03-05T18:43:21.628Z,2.30
2023-03-05T18:45:53.632Z,2.30
2023-03-05T18:48:21.173Z,2.30
2023-03-05T18:50:53.077Z,2.30
2023-03-05T18:53:21.695Z,2.40
2023-03-05T18:55:50.942Z,2.40
2023-03-05T18:58:18.721Z,2.50
2023-03-05T19:00:47.177Z,2.50
2023-03-05T19:03:15.908Z,2.50
2023-03-05T19:05:43.523Z,2.50
2023-03-05T19:08:11.375Z,2.50
2023-03-05T19:10:38.566Z,2.40
2023-03-05T19:13:25.372Z,2.40
2023-03-05T19:15:52.453Z,2.40
2023-03-05T19:18:20.766Z,2.40
2023-03-05T19:20:56.771Z,2.40
2023-03-05T19:23:23.793Z,2.40
2023-03-05T19:25:50.741Z,2.40
2023-03-05T19:28:17.731Z,2.40
2023-03-05T19:30:47.560Z,2.40
2023-03-05T19:33:14.525Z,2.50
2023-03-05T19:35:42.185Z,2.50
2023-03-05T19:38:09.149Z,2.40
2023-03-05T19:40:36.117Z,2.40
2023-03-05T19:43:03.093Z,2.40
2023-03-05T19:45:33.765Z,2.40
2023-03-05T19:48:01.912Z,2.30
2023-03-05T19:50:28.862Z,2.20
2023-03-05T19:54:09.629Z,2.20
2023-03-05T19:56:41.337Z,2.20
2023-03-05T19:59:08.593Z,2.10
2023-03-05T20:01:36.104Z,2.00
2023-03-05T20:04:04.872Z,1.90
2023-03-05T20:06:33.576Z,1.90
2023-03-05T20:09:00.720Z,1.80
2023-03-05T20:11:28.349Z,1.80
2023-03-05T20:13:55.857Z,1.80
2023-03-05T20:16:25.237Z,1.70
2023-03-05T20:18:54.930Z,1.80
2023-03-05T20:21:30.747Z,1.90
2023-03-05T20:24:02.204Z,2.00
2023-03-05T20:26:29.343Z,2.10
2023-03-05T20:28:57.345Z,2.10
2023-03-05T20:31:26.732Z,2.20
2023-03-05T20:33:56.207Z,2.20
2023-03-05T20:36:24.444Z,2.20
2023-03-05T20:38:51.437Z,2.20
2023-03-05T20:41:20.897Z,2.30
2023-03-05T20:43:50.105Z,2.30
2023-03-05T20:46:24.551Z,2.30
2023-03-05T20:48:55.121Z,2.20
2023-03-05T20:51:29.456Z,2.20
2023-03-05T20:54:02.495Z,2.30
2023-03-05T20:56:32.470Z,2.30
2023-03-05T20:59:02.938Z,2.30
2023-03-05T21:01:33.084Z,2.30
2023-03-05T21:04:01.535Z,2.30
2023-03-05T21:06:30.504Z,2.30
2023-03-05T21:08:58.072Z,2.30
2023-03-05T21:11:25.634Z,2.30
2023-03-05T21:13:52.988Z,2.30
2023-03-05T21:16:22.966Z,2.30
2023-03-05T21:18:51.213Z,2.30
2023-03-05T21:21:18.828Z,2.30
2023-03-05T21:23:45.974Z,2.30
2023-03-05T21:26:13.571Z,2.30
2023-03-05T21:28:41.562Z,2.30
2023-03-05T21:31:11.148Z,2.20
2023-03-05T21:33:38.144Z,2.20
2023-03-05T21:36:05.349Z,2.20
2023-03-05T21:38:34.177Z,2.20
2023-03-05T21:41:02.450Z,2.20
2023-03-05T21:43:31.388Z,2.30
2023-03-05T21:46:01.229Z,2.20
2023-03-05T21:48:28.355Z,2.20
2023-03-05T21:55:16.733Z,2.20
2023-03-05T21:57:43.829Z,2.20
2023-03-05T22:00:17.240Z,2.10
2023-03-05T22:02:44.240Z,2.10
2023-03-05T22:05:13.463Z,2.10
2023-03-05T22:07:40.540Z,2.10
2023-03-05T22:10:18.928Z,2.10
2023-03-05T22:13:12.626Z,2.10
2023-03-05T22:15:45.740Z,2.00
2023-03-05T22:18:14.804Z,2.00
2023-03-05T22:20:42.492Z,2.00
2023-03-05T22:23:09.559Z,1.90
2023-03-05T22:25:36.656Z,2.00
2023-03-05T22:28:04.292Z,2.00
2023-03-05T22:30:32.243Z,2.00
2023-03-05T22:33:00.759Z,2.00
2023-03-05T22:35:28.453Z,2.00
2023-03-05T22:37:55.515Z,2.00
2023-03-05T22:40:22.823Z,2.00
2023-03-05T22:42:49.879Z,2.00
2023-03-05T22:45:18.244Z,1.90
2023-03-05T22:47:51.563Z,1.90
2023-03-05T22:50:18.845Z,1.90
2023-03-05T22:52:46.649Z,2.00
2023-03-05T22:55:15.377Z,1.90
2023-03-05T22:57:43.307Z,1.90
2023-03-05T23:00:17.614Z,1.90
2023-03-05T23:02:45.214Z,1.90
2023-03-05T23:05:12.473Z,1.90
2023-03-05T23:07:41.655Z,1.90
2023-03-05T23:10:14.851Z,1.90
2023-03-05T23:12:46.224Z,1.90
2023-03-05T23:15:15.856Z,1.90
2023-03-05T23:17:43.019Z,1.90
2023-03-05T23:20:12.045Z,1.90
2023-03-05T23:22:40.363Z,1.90
2023-03-05T23:25:07.659Z,1.90
2023-03-05T23:27:34.741Z,1.90
2023-03-05T23:30:17.003Z,1.90
2023-03-05T23:32:49.741Z,1.90
2023-03-05T23:35:23.053Z,1.90
2023-03-05T23:37:50.246Z,1.90
2023-03-05T23:40:39.855Z,1.90
2023-03-05T23:43:07.054Z,1.90
2023-03-05T23:45:34.036Z,1.90
2023-03-05T23:48:01.302Z,1.90
2023-03-05T23:50:31.412Z,1.80
2023-03-05T23:53:01.739Z,1.60
2023-03-05T23:55:40.609Z,1.40
2023-03-05T23:58:07.800Z,1.30
